Time;durP1;ratioP1;P1;durP2;ratioP2;P2;SDS_P1;SDS_P2;PMS_P1;PMS_P2;Temp;Humidity;BMP_temperature;BMP_pressure;BME280_temperature;BME280_humidity;BME280_pressure;Samples;Min_cycle;Max_cycle;Signal;HPM_P1;HPM_P2
2023/03/07 00:00:37;;;;;;;15.93;10.50;;;;;;;7.11;47.55;96294.53;5038969;28;21037;-71
2023/03/07 00:03:03;;;;;;;18.00;11.97;;;;;;;7.09;48.06;96296.47;5039311;28;20466;-70
2023/03/07 00:05:28;;;;;;;15.80;10.87;;;;;;;6.96;48.06;96297.69;5038678;28;20279;-70
2023/03/07 00:07:54;;;;;;;16.77;10.73;;;;;;;6.92;48.23;96296.34;5038571;28;20197;-70
2023/03/07 00:10:19;;;;;;;16.07;10.10;;;;;;;6.91;47.71;96295.53;5036228;28;20250;-69
2023/03/07 00:12:45;;;;;;;16.80;10.60;;;;;;;7.02;47.68;96298.84;5040797;28;20183;-69
2023/03/07 00:15:10;;;;;;;15.87;10.20;;;;;;;7.01;47.46;96299.81;5037430;28;20203;-69
2023/03/07 00:17:37;;;;;;;15.63;10.13;;;;;;;7.00;47.67;96306.00;5036789;28;20820;-72
2023/03/07 00:20:06;;;;;;;14.27;10.00;;;;;;;6.90;47.92;96293.91;5036427;28;20179;-71
2023/03/07 00:22:33;;;;;;;16.93;10.40;;;;;;;6.67;48.11;96303.97;5038095;28;20510;-69
2023/03/07 00:24:58;;;;;;;17.73;10.50;;;;;;;6.71;48.26;96304.47;5035845;28;20424;-69
2023/03/07 00:27:24;;;;;;;16.00;9.93;;;;;;;6.42;48.60;96306.34;5033047;28;20468;-69
2023/03/07 00:29:50;;;;;;;17.07;12.00;;;;;;;6.45;48.42;96294.81;5033667;28;20183;-69
2023/03/07 00:32:15;;;;;;;18.63;11.60;;;;;;;6.63;48.57;96292.19;5036212;28;20346;-71
2023/03/07 00:34:40;;;;;;;16.13;10.63;;;;;;;6.59;47.95;96302.09;5030894;28;20207;-69
2023/03/07 00:37:06;;;;;;;17.77;10.37;;;;;;;6.58;48.16;96297.06;5036185;28;20232;-72
2023/03/07 00:39:32;;;;;;;14.83;10.17;;;;;;;6.65;48.39;96297.28;5037319;28;20190;-68
2023/03/07 00:41:58;;;;;;;16.33;10.67;;;;;;;6.60;48.37;96298.53;5038969;28;20231;-70
2023/03/07 00:44:24;;;;;;;22.03;10.53;;;;;;;6.33;48.45;96296.00;5046532;28;20316;-70
2023/03/07 00:46:49;;;;;;;16.80;10.50;;;;;;;6.49;48.81;96285.75;5030525;28;20191;-71
2023/03/07 00:49:15;;;;;;;18.90;11.77;;;;;;;6.53;48.28;96274.06;5029448;28;20419;-70
2023/03/07 00:51:40;;;;;;;17.37;10.47;;;;;;;6.65;47.92;96274.63;5040977;28;20294;-71
2023/03/07 00:54:06;;;;;;;15.50;10.03;;;;;;;6.70;47.74;96261.16;5037336;28;20795;-70
2023/03/07 00:56:31;;;;;;;18.20;10.40;;;;;;;6.70;48.11;96268.97;5031986;28;20207;-69
2023/03/07 00:58:57;;;;;;;17.50;11.07;;;;;;;6.58;47.94;96256.19;5049056;28;20212;-70
2023/03/07 01:01:23;;;;;;;15.90;10.00;;;;;;;6.69;47.74;96262.13;5048202;28;20795;-71
2023/03/07 01:03:52;;;;;;;18.60;10.50;;;;;;;6.66;47.27;96260.66;5040446;28;20566;-70
2023/03/07 01:06:19;;;;;;;15.63;10.43;;;;;;;6.35;47.88;96250.66;5059640;28;20777;-70
2023/03/07 01:08:44;;;;;;;15.33;10.13;;;;;;;6.63;47.65;96258.34;5039694;28;20504;-70
2023/03/07 01:11:10;;;;;;;16.10;9.57;;;;;;;6.69;47.19;96246.50;5042080;28;21085;-70
2023/03/07 01:13:36;;;;;;;15.20;10.07;;;;;;;6.63;47.16;96250.53;5058558;28;20191;-70
2023/03/07 01:16:12;;;;;;;20.60;11.07;;;;;;;6.62;46.98;96243.69;5043382;28;20813;-70
2023/03/07 01:18:38;;;;;;;15.10;9.60;;;;;;;6.78;47.13;96245.63;5039780;28;20673;-70
2023/03/07 01:21:34;;;;;;;13.63;9.63;;;;;;;6.69;47.17;96238.69;5050926;28;20489;-70
2023/03/07 01:23:59;;;;;;;14.57;10.20;;;;;;;6.61;46.75;96245.50;5044923;28;20252;-70
2023/03/07 01:26:27;;;;;;;15.50;9.70;;;;;;;6.57;46.74;96243.34;5048730;28;20853;-71
2023/03/07 01:28:55;;;;;;;16.07;9.40;;;;;;;6.78;46.61;96248.22;5050845;28;20187;-70
2023/03/07 01:31:21;;;;;;;13.07;9.07;;;;;;;6.63;46.48;96247.13;5048871;28;20468;-70
2023/03/07 01:33:47;;;;;;;16.93;9.70;;;;;;;6.72;46.50;96236.63;5043911;28;20926;-70
2023/03/07 01:36:17;;;;;;;14.23;9.00;;;;;;;6.82;46.54;96244.31;5048562;28;20588;-70
2023/03/07 01:38:42;;;;;;;15.13;10.00;;;;;;;6.78;46.05;96243.03;5057822;28;20507;-70
2023/03/07 01:41:08;;;;;;;13.60;9.93;;;;;;;6.73;45.97;96234.81;5044174;28;20488;-70
2023/03/07 01:43:34;;;;;;;14.30;9.80;;;;;;;6.82;46.10;96235.72;5044791;28;20191;-70
2023/03/07 01:46:17;;;;;;;14.60;9.30;;;;;;;6.81;46.04;96232.28;5048499;28;20424;-71
2023/03/07 01:48:49;;;;;;;16.10;10.30;;;;;;;6.74;45.77;96228.66;5054389;28;20213;-70
2023/03/07 01:51:15;;;;;;;15.97;9.67;;;;;;;6.60;45.78;96225.63;5043100;28;20664;-70
2023/03/07 01:53:40;;;;;;;14.20;9.33;;;;;;;6.65;46.32;96221.75;5048368;28;20505;-69
2023/03/07 01:56:06;;;;;;;12.27;9.00;;;;;;;6.64;46.17;96212.31;5050235;28;20211;-70
2023/03/07 01:58:33;;;;;;;17.23;10.07;;;;;;;6.70;46.19;96225.53;5043362;28;20194;-70
2023/03/07 02:00:59;;;;;;;12.40;9.20;;;;;;;6.80;45.88;96217.66;5040157;28;20444;-70
2023/03/07 02:03:27;;;;;;;13.73;9.03;;;;;;;6.65;45.60;96211.34;5038273;28;20783;-70
2023/03/07 02:05:55;;;;;;;16.47;10.00;;;;;;;6.70;45.94;96206.47;5048001;28;20182;-69
2023/03/07 02:08:23;;;;;;;15.50;9.53;;;;;;;6.83;45.68;96212.09;5040176;28;20453;-70
2023/03/07 02:10:49;;;;;;;15.07;9.47;;;;;;;6.66;45.72;96213.78;5042642;28;20446;-69
2023/03/07 02:13:15;;;;;;;16.50;9.80;;;;;;;6.74;46.01;96200.81;5047360;28;20889;-69
2023/03/07 02:15:40;;;;;;;15.00;9.77;;;;;;;6.81;46.15;96211.44;5047349;28;20294;-69
2023/03/07 02:18:06;;;;;;;16.00;9.73;;;;;;;6.67;46.21;96205.00;5036484;28;20191;-71
2023/03/07 02:20:41;;;;;;;15.70;10.47;;;;;;;6.63;46.30;96213.28;5053374;28;20211;-69
2023/03/07 02:23:12;;;;;;;15.70;9.60;;;;;;;6.64;46.46;96210.50;5046094;28;20509;-69
2023/03/07 02:26:20;;;;;;;16.83;10.27;;;;;;;6.63;46.10;96208.88;5041756;28;20456;-71
2023/03/07 02:28:46;;;;;;;14.40;8.80;;;;;;;6.67;46.61;96204.22;5027297;28;20878;-70
2023/03/07 02:31:12;;;;;;;19.20;10.07;;;;;;;6.60;45.97;96204.78;5038689;28;20538;-70
2023/03/07 02:33:37;;;;;;;15.77;9.77;;;;;;;6.57;46.21;96204.28;5038826;28;20456;-69
2023/03/07 02:36:07;;;;;;;13.40;9.87;;;;;;;6.55;46.36;96203.63;5044366;28;20690;-69
2023/03/07 02:38:36;;;;;;;15.30;10.10;;;;;;;6.34;46.86;96199.56;5036611;28;20192;-71
2023/03/07 02:41:02;;;;;;;16.57;9.37;;;;;;;6.29;47.13;96192.22;5044819;28;20433;-72
2023/03/07 02:43:28;;;;;;;13.40;9.47;;;;;;;6.36;47.16;96189.00;5044307;28;20430;-71
2023/03/07 02:45:54;;;;;;;13.43;9.10;;;;;;;6.47;46.97;96178.34;5044536;28;20172;-70
2023/03/07 02:48:20;;;;;;;15.50;9.33;;;;;;;6.44;46.31;96176.03;5038685;28;20187;-71
2023/03/07 02:50:47;;;;;;;16.60;9.90;;;;;;;6.47;46.59;96167.94;5045496;28;20879;-71
2023/03/07 02:53:12;;;;;;;26.90;11.50;;;;;;;6.32;46.75;96174.63;5047762;28;20186;-71
2023/03/07 02:55:38;;;;;;;20.40;10.47;;;;;;;6.43;46.74;96171.78;5046889;28;20544;-72
2023/03/07 02:58:03;;;;;;;16.17;10.37;;;;;;;6.61;46.63;96169.97;5044428;28;20179;-71
2023/03/07 03:00:29;;;;;;;13.57;9.67;;;;;;;6.67;46.19;96168.56;5039886;28;20228;-71
2023/03/07 03:02:54;;;;;;;16.17;9.53;;;;;;;6.45;46.43;96169.88;5052156;28;20182;-71
2023/03/07 03:05:20;;;;;;;14.80;9.90;;;;;;;6.46;46.34;96168.91;5051166;28;20742;-71
2023/03/07 03:07:45;;;;;;;15.70;10.23;;;;;;;6.47;46.47;96165.31;5049049;28;20210;-70
2023/03/07 03:10:10;;;;;;;15.60;10.40;;;;;;;6.46;46.64;96161.09;5045337;28;20206;-70
2023/03/07 03:12:36;;;;;;;15.53;10.53;;;;;;;6.61;46.30;96167.38;5046403;28;20672;-71
2023/03/07 03:15:02;;;;;;;15.07;10.07;;;;;;;6.39;46.74;96171.28;5054125;28;20293;-71
2023/03/07 03:17:27;;;;;;;16.43;10.57;;;;;;;6.38;47.01;96168.84;5063409;28;20190;-69
2023/03/07 03:19:53;;;;;;;18.77;10.87;;;;;;;6.32;46.89;96169.44;5053402;28;20224;-70
2023/03/07 03:22:19;;;;;;;17.27;10.60;;;;;;;6.24;46.85;96173.63;5049534;28;20914;-70
2023/03/07 03:24:44;;;;;;;18.27;11.20;;;;;;;5.96;47.73;96180.66;5050815;28;20640;-70
2023/03/07 03:27:10;;;;;;;16.43;10.17;;;;;;;6.14;47.67;96178.09;5052624;28;20461;-70
2023/03/07 03:29:35;;;;;;;18.70;10.30;;;;;;;6.34;47.55;96170.94;5035685;28;20282;-68
2023/03/07 03:32:01;;;;;;;16.63;10.60;;;;;;;6.50;47.07;96175.44;5051672;28;20210;-69
2023/03/07 03:34:27;;;;;;;16.13;11.03;;;;;;;6.41;46.73;96165.94;5051119;28;20187;-71
2023/03/07 03:36:52;;;;;;;16.20;10.80;;;;;;;6.28;47.23;96172.38;5050402;28;20222;-70
2023/03/07 03:39:18;;;;;;;16.87;10.13;;;;;;;6.33;47.08;96171.91;5039919;28;20192;-70
2023/03/07 03:41:43;;;;;;;15.80;10.47;;;;;;;6.28;47.17;96169.75;5045219;28;20195;-71
2023/03/07 03:44:08;;;;;;;18.97;10.47;;;;;;;6.30;46.96;96165.19;5046690;28;20188;-69
2023/03/07 03:46:35;;;;;;;17.83;10.50;;;;;;;6.24;47.20;96160.63;5050365;28;20274;-71
2023/03/07 03:49:00;;;;;;;16.53;10.50;;;;;;;6.25;47.25;96159.66;5050761;28;20260;-70
2023/03/07 03:51:26;;;;;;;19.90;11.20;;;;;;;6.43;46.80;96162.22;5050121;28;20507;-70
2023/03/07 03:53:52;;;;;;;15.30;10.40;;;;;;;6.43;46.72;96157.00;5050678;28;20260;-70
2023/03/07 03:56:22;;;;;;;17.27;11.00;;;;;;;6.45;46.77;96155.09;5052934;28;20543;-71
2023/03/07 03:58:50;;;;;;;18.90;11.07;;;;;;;6.53;46.74;96156.09;5051768;28;20179;-70
2023/03/07 04:01:16;;;;;;;15.50;10.73;;;;;;;6.63;46.44;96161.22;5046286;28;20541;-70
2023/03/07 04:03:46;;;;;;;17.40;10.57;;;;;;;6.66;46.24;96163.50;5049969;28;20426;-70
2023/03/07 04:06:14;;;;;;;16.10;10.50;;;;;;;6.64;46.20;96157.63;5050335;28;20442;-71
2023/03/07 04:08:40;;;;;;;16.03;11.17;;;;;;;6.47;46.68;96156.72;5050149;28;20457;-71
2023/03/07 04:11:05;;;;;;;18.77;11.47;;;;;;;6.60;45.97;96151.94;5042509;28;20465;-70
2023/03/07 04:13:34;;;;;;;18.60;11.93;;;;;;;6.55;46.20;96144.53;5044592;28;20560;-71
2023/03/07 04:16:00;;;;;;;17.57;11.00;;;;;;;6.68;46.48;96148.56;5054871;28;20241;-71
2023/03/07 04:18:26;;;;;;;15.60;11.17;;;;;;;6.72;46.60;96145.50;5039075;28;20422;-72
2023/03/07 04:20:52;;;;;;;19.10;12.53;;;;;;;6.68;46.28;96138.94;5043774;28;21161;-70
2023/03/07 04:23:18;;;;;;;22.63;12.17;;;;;;;6.69;46.43;96144.97;5049137;28;20216;-69
2023/03/07 04:25:48;;;;;;;19.40;11.40;;;;;;;6.51;46.66;96142.41;5048770;28;20198;-70
2023/03/07 04:28:14;;;;;;;23.10;11.20;;;;;;;6.14;47.58;96141.66;5033168;28;20427;-69
2023/03/07 04:30:40;;;;;;;16.37;10.73;;;;;;;6.34;47.33;96147.53;5044934;28;20877;-69
2023/03/07 04:33:05;;;;;;;17.33;11.13;;;;;;;6.35;46.83;96138.75;5042813;28;20475;-70
2023/03/07 04:35:30;;;;;;;18.80;11.23;;;;;;;6.55;46.74;96144.53;5035705;28;20242;-70
2023/03/07 04:37:56;;;;;;;17.53;10.83;;;;;;;6.46;47.13;96140.25;5034847;28;20645;-70
2023/03/07 04:40:21;;;;;;;15.07;10.67;;;;;;;6.53;46.51;96136.09;5041671;28;20203;-70
2023/03/07 04:42:47;;;;;;;20.40;12.80;;;;;;;6.40;46.66;96135.69;5044221;28;20269;-70
2023/03/07 04:45:12;;;;;;;16.40;10.23;;;;;;;6.51;46.72;96129.38;5040838;28;20210;-70
2023/03/07 04:47:38;;;;;;;16.70;11.03;;;;;;;6.47;46.71;96136.69;5048348;28;20270;-70
2023/03/07 04:50:04;;;;;;;18.50;12.17;;;;;;;6.48;46.82;96127.91;5052132;28;20180;-71
2023/03/07 04:52:29;;;;;;;18.33;11.27;;;;;;;6.52;46.75;96133.63;5045158;28;20202;-69
2023/03/07 04:54:55;;;;;;;18.77;11.63;;;;;;;6.43;46.66;96127.56;5038927;28;20516;-71
2023/03/07 04:57:20;;;;;;;18.77;12.03;;;;;;;6.52;46.70;96129.25;5048973;28;20182;-71
2023/03/07 04:59:45;;;;;;;21.10;10.83;;;;;;;6.59;46.62;96119.84;5047644;28;20232;-70
2023/03/07 05:02:11;;;;;;;17.40;11.00;;;;;;;6.60;46.58;96125.88;5040870;28;20203;-71
2023/03/07 05:04:37;;;;;;;21.30;12.13;;;;;;;6.60;46.54;96126.69;5040972;28;20187;-70
2023/03/07 05:07:03;;;;;;;15.73;10.80;;;;;;;6.57;46.12;96132.19;5046641;28;20188;-71
2023/03/07 05:09:29;;;;;;;20.70;11.97;;;;;;;6.60;46.61;96120.69;5041906;28;20179;-72
2023/03/07 05:11:54;;;;;;;17.17;10.53;;;;;;;6.61;46.17;96127.53;5042747;28;20445;-71
2023/03/07 05:14:20;;;;;;;16.57;10.80;;;;;;;6.44;46.65;96121.38;5036955;28;20445;-72
2023/03/07 05:16:45;;;;;;;16.50;10.60;;;;;;;6.50;46.62;96125.16;5044137;28;20203;-72
2023/03/07 05:19:12;;;;;;;18.53;10.40;;;;;;;6.47;46.78;96122.88;5048201;28;20194;-71
2023/03/07 05:21:39;;;;;;;17.80;10.53;;;;;;;6.50;46.70;96110.38;5050552;28;20333;-71
2023/03/07 05:24:05;;;;;;;19.13;11.50;;;;;;;6.63;46.25;96114.34;5053280;28;20831;-72
2023/03/07 05:26:31;;;;;;;19.10;11.00;;;;;;;6.56;46.66;96109.75;5034422;28;20418;-71
2023/03/07 05:28:56;;;;;;;17.23;11.30;;;;;;;6.53;46.56;96099.66;5041794;28;21176;-71
2023/03/07 05:31:22;;;;;;;24.27;11.63;;;;;;;6.48;46.78;96101.88;5047979;28;20211;-71
2023/03/07 05:33:47;;;;;;;17.47;11.00;;;;;;;6.48;46.57;96109.69;5031218;28;20434;-70
2023/03/07 05:36:12;;;;;;;17.53;10.90;;;;;;;6.51;46.26;96106.78;5046797;28;20303;-71
2023/03/07 05:38:38;;;;;;;18.40;10.60;;;;;;;6.45;46.36;96107.41;5042287;28;20202;-70
2023/03/07 05:41:03;;;;;;;18.23;11.13;;;;;;;6.51;46.06;96106.78;5043626;28;20726;-71
2023/03/07 05:43:29;;;;;;;19.00;10.70;;;;;;;6.40;46.34;96112.25;5048210;28;20722;-71
2023/03/07 05:45:54;;;;;;;18.07;10.70;;;;;;;6.32;46.21;96113.03;5046763;28;20211;-69
2023/03/07 05:48:20;;;;;;;18.53;10.20;;;;;;;6.36;45.99;96119.56;5044056;28;20203;-69
2023/03/07 05:50:45;;;;;;;16.00;10.70;;;;;;;6.49;45.90;96106.13;5047124;28;20238;-70
2023/03/07 05:53:11;;;;;;;15.00;10.50;;;;;;;6.56;45.81;96096.72;5053466;28;20207;-70
2023/03/07 05:55:36;;;;;;;16.90;10.77;;;;;;;6.52;45.70;96102.41;5051240;28;20302;-69
2023/03/07 05:58:01;;;;;;;15.77;9.73;;;;;;;6.02;46.34;96109.06;5043676;28;20650;-69
2023/03/07 06:00:27;;;;;;;18.67;10.83;;;;;;;6.41;46.12;96101.69;5047236;28;20182;-69
2023/03/07 06:02:52;;;;;;;16.03;9.77;;;;;;;6.32;45.86;96097.41;5050863;28;20191;-69
2023/03/07 06:05:18;;;;;;;16.97;9.80;;;;;;;6.37;45.56;96091.75;5051950;28;20179;-70
2023/03/07 06:07:43;;;;;;;15.67;9.70;;;;;;;6.31;45.44;96100.97;5060321;28;20241;-71
2023/03/07 06:10:10;;;;;;;14.13;9.43;;;;;;;6.49;45.29;96090.50;5042805;28;20179;-70
2023/03/07 06:12:36;;;;;;;16.27;9.47;;;;;;;6.37;45.60;96086.53;5026749;28;20186;-69
2023/03/07 06:15:02;;;;;;;16.87;10.40;;;;;;;6.45;45.47;96081.38;5049655;28;21458;-70
2023/03/07 06:17:27;;;;;;;17.90;9.27;;;;;;;6.51;45.15;96085.97;5042846;28;20186;-70
2023/03/07 06:19:53;;;;;;;17.20;9.70;;;;;;;6.53;45.10;96076.22;5046141;28;20487;-70
2023/03/07 06:22:18;;;;;;;16.50;9.33;;;;;;;6.60;44.56;96082.44;5045682;28;20269;-70
2023/03/07 06:24:44;;;;;;;15.20;9.80;;;;;;;6.65;44.86;96081.16;5047163;28;20805;-70
2023/03/07 06:27:09;;;;;;;19.67;9.60;;;;;;;6.72;44.75;96080.38;5044650;28;20206;-70
2023/03/07 06:29:35;;;;;;;17.33;9.80;;;;;;;6.44;44.65;96079.72;5030890;28;20262;-71
2023/03/07 06:32:00;;;;;;;14.60;9.80;;;;;;;6.54;44.88;96080.47;5038067;28;20262;-69
2023/03/07 06:34:26;;;;;;;17.13;10.17;;;;;;;6.49;44.65;96074.91;5040878;28;20263;-71
2023/03/07 06:36:51;;;;;;;17.50;9.33;;;;;;;6.52;44.36;96077.19;5052190;28;20206;-70
2023/03/07 06:39:19;;;;;;;15.90;9.77;;;;;;;6.51;44.69;96088.56;5038045;28;20267;-69
2023/03/07 06:41:47;;;;;;;17.13;9.60;;;;;;;6.32;44.96;96086.16;5047097;28;20795;-70
2023/03/07 06:44:12;;;;;;;16.97;9.83;;;;;;;6.39;45.14;96095.81;5049821;28;20471;-70
2023/03/07 06:46:38;;;;;;;14.60;9.50;;;;;;;6.42;45.23;96081.69;5031600;28;20430;-70
2023/03/07 06:49:03;;;;;;;18.43;10.30;;;;;;;6.41;44.89;96080.06;5052292;28;20196;-70
2023/03/07 06:51:29;;;;;;;16.10;10.30;;;;;;;6.46;45.03;96088.22;5048247;28;20226;-69
2023/03/07 06:53:54;;;;;;;21.73;9.90;;;;;;;6.53;44.75;96084.03;5047452;28;20314;-70
2023/03/07 06:56:19;;;;;;;15.03;9.20;;;;;;;6.55;44.83;96095.09;5044620;28;20242;-70
2023/03/07 06:58:45;;;;;;;14.40;9.60;;;;;;;6.66;44.73;96093.22;5047033;28;20707;-70
2023/03/07 07:01:21;;;;;;;12.87;8.63;;;;;;;6.51;44.94;96083.38;5056066;28;20684;-70
2023/03/07 07:03:48;;;;;;;16.00;10.23;;;;;;;6.45;45.04;96094.38;5039901;28;20215;-70
2023/03/07 07:06:13;;;;;;;14.07;9.37;;;;;;;6.44;45.17;96085.78;5050089;28;20954;-70
2023/03/07 07:08:39;;;;;;;18.33;10.30;;;;;;;6.50;45.34;96092.16;5049263;28;20426;-70
2023/03/07 07:11:04;;;;;;;15.77;9.43;;;;;;;6.47;45.57;96095.06;5047614;28;20245;-70
2023/03/07 07:13:30;;;;;;;16.07;8.60;;;;;;;6.71;44.87;96091.78;5056764;28;20309;-70
2023/03/07 07:15:55;;;;;;;15.90;10.50;;;;;;;6.82;45.00;96095.88;5032993;28;20242;-70
2023/03/07 07:18:21;;;;;;;15.50;9.30;;;;;;;6.70;45.08;96089.31;5041188;28;20215;-70
2023/03/07 07:20:53;;;;;;;15.30;10.53;;;;;;;6.75;44.63;96087.06;5042611;28;20215;-70
2023/03/07 07:23:19;;;;;;;14.13;9.57;;;;;;;6.83;44.11;96089.69;5043496;28;20232;-71
2023/03/07 07:25:44;;;;;;;13.03;8.50;;;;;;;6.61;44.56;96084.06;5035128;28;20907;-71
2023/03/07 07:28:10;;;;;;;13.30;9.37;;;;;;;6.87;44.27;96083.22;5049975;28;20179;-72
2023/03/07 07:30:35;;;;;;;15.93;9.27;;;;;;;6.86;44.08;96072.97;5039021;28;20302;-71
2023/03/07 07:33:01;;;;;;;16.70;9.60;;;;;;;7.00;43.88;96082.75;5046331;28;20305;-71
2023/03/07 07:35:26;;;;;;;15.50;9.10;;;;;;;6.80;44.53;96074.41;5037950;28;20929;-72
2023/03/07 07:37:52;;;;;;;15.20;9.57;;;;;;;6.96;44.50;96084.06;5050114;28;20249;-72
2023/03/07 07:40:17;;;;;;;15.43;9.77;;;;;;;6.82;44.34;96082.06;5045938;28;20878;-69
2023/03/07 07:42:42;;;;;;;14.03;9.53;;;;;;;7.12;44.45;96082.50;5042899;28;20188;-70
2023/03/07 07:45:09;;;;;;;15.87;9.90;;;;;;;7.22;44.20;96078.78;5049501;28;20185;-70
2023/03/07 07:47:34;;;;;;;12.93;8.93;;;;;;;7.32;43.83;96086.47;5043478;28;20198;-71
2023/03/07 07:49:59;;;;;;;16.50;10.20;;;;;;;7.29;43.82;96084.16;5052643;28;20437;-72
2023/03/07 07:52:25;;;;;;;16.83;10.03;;;;;;;7.17;43.83;96091.47;5050727;28;20210;-70
2023/03/07 07:54:50;;;;;;;12.73;8.90;;;;;;;7.19;43.70;96081.69;5058877;28;20218;-71
2023/03/07 07:57:16;;;;;;;15.00;9.90;;;;;;;7.31;43.78;96081.41;5049899;28;20267;-71
2023/03/07 07:59:41;;;;;;;18.20;9.27;;;;;;;7.30;44.05;96077.19;5044026;28;20313;-71
2023/03/07 08:02:12;;;;;;;16.80;9.83;;;;;;;7.41;44.14;96079.47;5044229;28;20247;-72
2023/03/07 08:04:37;;;;;;;14.37;9.03;;;;;;;7.62;43.47;96075.59;5041081;28;20190;-73
2023/03/07 08:07:03;;;;;;;14.23;8.93;;;;;;;7.76;42.88;96068.91;5042354;28;20423;-71
2023/03/07 08:09:28;;;;;;;16.07;9.17;;;;;;;7.61;43.28;96085.22;5051522;28;20249;-72
2023/03/07 08:11:54;;;;;;;15.50;9.80;;;;;;;7.74;43.34;96069.09;5035015;28;20256;-71
2023/03/07 08:14:19;;;;;;;13.77;9.10;;;;;;;7.89;43.09;96068.44;5047210;28;20187;-71
2023/03/07 08:16:45;;;;;;;16.60;9.83;;;;;;;7.90;43.00;96070.06;5046155;28;20744;-72
2023/03/07 08:19:10;;;;;;;16.23;9.33;;;;;;;8.02;42.00;96079.19;5040980;28;20599;-70
2023/03/07 08:21:35;;;;;;;17.53;10.10;;;;;;;7.65;43.08;96073.47;5045914;28;20675;-70
2023/03/07 08:24:01;;;;;;;14.40;9.10;;;;;;;7.94;43.03;96066.16;5049957;28;20184;-71
2023/03/07 08:26:26;;;;;;;14.83;9.53;;;;;;;8.03;42.22;96065.19;5046723;28;20187;-70
2023/03/07 08:28:52;;;;;;;16.43;10.50;;;;;;;8.25;42.33;96062.88;5050019;28;20183;-69
2023/03/07 08:31:22;;;;;;;17.77;9.60;;;;;;;8.51;41.72;96054.03;5033931;28;20642;-68
2023/03/07 08:33:48;;;;;;;13.73;9.53;;;;;;;8.55;42.38;96052.72;5047074;28;20176;-68
2023/03/07 08:36:14;;;;;;;12.73;9.13;;;;;;;8.77;41.44;96043.31;5031355;28;20458;-69
2023/03/07 08:38:39;;;;;;;13.00;9.30;;;;;;;8.57;40.65;96053.34;5035130;28;20858;-69
2023/03/07 08:41:06;;;;;;;16.53;8.93;;;;;;;8.83;40.15;96053.13;5036376;28;20478;-70
2023/03/07 08:43:35;;;;;;;13.73;8.70;;;;;;;8.71;41.00;96047.44;5047031;28;20187;-69
2023/03/07 08:46:01;;;;;;;13.53;9.43;;;;;;;8.54;40.54;96040.66;5034498;28;20433;-69
2023/03/07 08:48:26;;;;;;;11.93;8.80;;;;;;;8.74;40.89;96046.31;5045651;28;20913;-69
2023/03/07 08:50:52;;;;;;;13.80;8.53;;;;;;;9.03;40.29;96039.63;5049718;28;20525;-69
2023/03/07 08:53:18;;;;;;;13.50;9.17;;;;;;;9.24;39.89;96041.66;5059477;28;20189;-70
2023/03/07 08:55:44;;;;;;;11.27;8.73;;;;;;;8.94;39.55;96038.03;5058566;28;20492;-69
2023/03/07 08:58:09;;;;;;;13.00;8.27;;;;;;;9.01;40.02;96039.00;5050394;28;21306;-69
2023/03/07 09:00:35;;;;;;;16.33;9.37;;;;;;;9.24;39.42;96046.06;5041933;28;20348;-71
2023/03/07 09:03:01;;;;;;;12.23;9.20;;;;;;;9.17;38.92;96038.09;5048809;28;20238;-70
2023/03/07 09:05:27;;;;;;;17.97;8.77;;;;;;;9.29;39.17;96036.72;5058551;28;20429;-70
2023/03/07 09:07:53;;;;;;;16.27;8.57;;;;;;;9.40;38.57;96035.50;5042340;28;20207;-71
2023/03/07 09:10:19;;;;;;;12.80;8.53;;;;;;;9.27;38.25;96050.94;5052097;28;20828;-70
2023/03/07 09:12:46;;;;;;;18.67;8.50;;;;;;;9.49;37.50;96038.88;5060824;28;20434;-71
2023/03/07 09:15:12;;;;;;;10.30;8.00;;;;;;;9.59;37.34;96041.28;5040461;28;20644;-69
2023/03/07 09:17:37;;;;;;;11.43;7.40;;;;;;;9.65;37.29;96030.09;5048525;28;20434;-69
2023/03/07 09:20:04;;;;;;;12.50;7.70;;;;;;;9.52;36.69;96033.31;5054293;28;20183;-70
2023/03/07 09:22:30;;;;;;;11.67;8.13;;;;;;;9.40;36.48;96034.69;5040053;28;20210;-71
2023/03/07 09:24:55;;;;;;;11.80;7.37;;;;;;;9.34;36.75;96028.34;5056578;28;20512;-70
2023/03/07 09:27:21;;;;;;;10.57;7.03;;;;;;;9.10;36.96;96029.31;5033490;28;20202;-70
2023/03/07 09:29:46;;;;;;;15.30;7.70;;;;;;;9.12;37.02;96032.56;5045005;28;20187;-72
2023/03/07 09:32:12;;;;;;;9.20;7.13;;;;;;;9.06;37.13;96032.28;5053126;28;20336;-71
2023/03/07 09:34:37;;;;;;;10.93;6.90;;;;;;;8.65;37.39;96032.44;5059032;28;20187;-70
2023/03/07 09:37:04;;;;;;;9.83;7.30;;;;;;;8.90;37.11;96029.75;5042598;28;20628;-70
2023/03/07 09:39:30;;;;;;;10.50;6.80;;;;;;;8.96;37.38;96026.44;5042221;28;20179;-70
2023/03/07 09:41:58;;;;;;;12.77;6.97;;;;;;;9.03;38.10;96030.00;5049847;28;20494;-70
2023/03/07 09:44:48;;;;;;;11.70;7.40;;;;;;;9.04;38.00;96036.03;5035643;28;20430;-71
2023/03/07 09:47:32;;;;;;;9.27;6.80;;;;;;;8.91;37.55;96031.38;5040497;28;20422;-70
2023/03/07 09:50:00;;;;;;;12.20;6.57;;;;;;;8.73;37.25;96035.03;5056093;28;20542;-71
2023/03/07 09:52:27;;;;;;;10.10;7.30;;;;;;;8.72;37.20;96027.38;5055438;28;20507;-72
2023/03/07 09:54:58;;;;;;;8.77;5.90;;;;;;;8.64;37.33;96020.38;5046459;28;20425;-70
2023/03/07 09:57:33;;;;;;;10.50;6.43;;;;;;;8.62;37.53;96018.91;5047070;28;20434;-70
2023/03/07 10:00:17;;;;;;;8.90;7.07;;;;;;;8.34;38.40;96016.69;5036831;28;20470;-70
2023/03/07 10:03:20;;;;;;;9.63;6.87;;;;;;;8.26;38.33;96017.50;5049477;28;20478;-70
2023/03/07 10:05:50;;;;;;;10.63;7.60;;;;;;;8.37;38.45;96013.75;5048338;28;20413;-70
2023/03/07 10:08:17;;;;;;;14.27;7.50;;;;;;;8.38;38.52;96020.59;5040126;28;20522;-71
2023/03/07 10:10:51;;;;;;;11.50;7.70;;;;;;;8.62;38.67;96021.53;5050414;28;20437;-69
2023/03/07 10:13:31;;;;;;;15.13;7.97;;;;;;;8.68;38.33;96021.66;5056484;28;20439;-71
2023/03/07 10:16:00;;;;;;;10.23;7.13;;;;;;;8.72;38.40;96007.28;5047777;28;20921;-71
2023/03/07 10:18:50;;;;;;;10.70;7.27;;;;;;;8.74;37.82;96010.53;5045890;28;20430;-71
2023/03/07 10:21:43;;;;;;;10.13;6.90;;;;;;;8.76;38.16;96011.19;5053628;28;20434;-69
2023/03/07 10:24:15;;;;;;;9.27;6.73;;;;;;;8.73;37.53;95997.66;5044853;28;20458;-71
2023/03/07 10:26:59;;;;;;;13.63;7.47;;;;;;;8.53;38.15;96003.25;5047287;28;20502;-71
2023/03/07 10:29:28;;;;;;;10.83;7.50;;;;;;;8.44;38.54;96006.84;5028264;28;20789;-70
2023/03/07 10:32:13;;;;;;;13.63;8.00;;;;;;;8.53;38.63;96002.47;5038218;28;20492;-71
2023/03/07 10:34:39;;;;;;;14.00;8.43;;;;;;;8.54;38.74;96004.88;5059148;28;20425;-71
2023/03/07 10:37:19;;;;;;;10.30;8.10;;;;;;;8.37;39.46;95992.88;5038062;28;20461;-71
2023/03/07 10:39:55;;;;;;;13.53;8.30;;;;;;;7.58;40.34;96001.25;5042962;28;20235;-70
2023/03/07 10:42:22;;;;;;;11.23;7.83;;;;;;;8.01;39.91;95986.25;5044992;28;20842;-71
2023/03/07 10:44:49;;;;;;;14.40;8.20;;;;;;;8.25;39.12;95982.75;5059358;28;20417;-72
2023/03/07 10:47:19;;;;;;;11.80;8.07;;;;;;;8.29;38.89;95988.47;5053862;28;20474;-68
2023/03/07 10:49:47;;;;;;;11.93;7.73;;;;;;;8.17;38.66;95985.41;5050279;28;20803;-71
2023/03/07 10:52:40;;;;;;;10.40;7.40;;;;;;;8.34;37.87;95983.53;5027887;28;20449;-71
2023/03/07 10:55:36;;;;;;;10.07;6.90;;;;;;;8.34;37.81;95987.97;5047400;28;20470;-70
2023/03/07 10:58:23;;;;;;;12.00;7.10;;;;;;;8.42;37.71;95988.75;5046993;28;20512;-70
2023/03/07 11:01:05;;;;;;;12.03;7.60;;;;;;;8.36;38.12;95978.19;5041611;28;20450;-71
2023/03/07 11:03:38;;;;;;;10.43;7.60;;;;;;;8.41;37.31;95979.31;5049867;28;20430;-69
2023/03/07 11:06:24;;;;;;;12.00;7.47;;;;;;;8.50;37.71;95969.69;5043121;28;20551;-71
2023/03/07 11:08:49;;;;;;;11.53;7.57;;;;;;;8.31;37.57;95981.28;5061981;28;20414;-69
2023/03/07 11:11:23;;;;;;;11.53;6.70;;;;;;;8.32;37.84;95985.50;5051315;28;20527;-71
2023/03/07 11:14:10;;;;;;;13.40;7.07;;;;;;;8.29;37.09;95975.44;5050713;28;20188;-69
2023/03/07 11:16:59;;;;;;;11.67;7.83;;;;;;;8.00;37.77;95967.16;5042031;28;20493;-71
2023/03/07 11:19:35;;;;;;;10.80;7.27;;;;;;;8.11;37.34;95967.81;5046195;28;21208;-71
2023/03/07 11:22:03;;;;;;;11.43;7.93;;;;;;;8.08;37.47;95973.34;5053889;28;20887;-70
2023/03/07 11:24:33;;;;;;;10.93;7.27;;;;;;;8.03;37.55;95971.25;5055226;28;20436;-71
2023/03/07 11:26:59;;;;;;;11.97;8.17;;;;;;;8.15;37.20;95969.09;5057669;28;20424;-71
2023/03/07 11:29:27;;;;;;;9.93;7.43;;;;;;;8.14;36.98;95963.06;5046289;28;20817;-71
2023/03/07 11:32:01;;;;;;;10.37;7.40;;;;;;;8.24;36.55;95956.84;5050940;28;20219;-71